createdAt,value
2018-10-18T00:00:18.767Z,17.10
2018-10-18T00:01:23.165Z,17.10
2018-10-18T00:02:26.589Z,17.00
2018-10-18T00:03:30.090Z,17.00
2018-10-18T00:04:33.428Z,17.00
2018-10-18T00:05:37.873Z,17.00
2018-10-18T00:06:41.324Z,17.00
2018-10-18T00:07:44.750Z,16.90
2018-10-18T00:08:48.145Z,16.90
2018-10-18T00:09:51.545Z,16.90
2018-10-18T00:10:56.081Z,16.90
2018-10-18T00:11:59.533Z,16.90
2018-10-18T00:13:02.911Z,16.80
2018-10-18T00:14:06.482Z,16.90
2018-10-18T00:15:11.099Z,16.80
2018-10-18T00:16:15.690Z,16.80
2018-10-18T00:17:24.514Z,16.80
2018-10-18T00:18:27.910Z,16.80
2018-10-18T00:19:31.305Z,16.90
2018-10-18T00:20:35.705Z,16.80
2018-10-18T00:21:39.182Z,16.80
2018-10-18T00:22:43.263Z,16.80
2018-10-18T00:23:46.672Z,16.80
2018-10-18T00:24:50.367Z,16.80
2018-10-18T00:25:54.805Z,16.70
2018-10-18T00:26:58.245Z,16.70
2018-10-18T00:28:01.630Z,16.70
2018-10-18T00:29:05.188Z,16.70
2018-10-18T00:30:11.834Z,16.60
2018-10-18T00:31:16.402Z,16.60
2018-10-18T00:32:19.901Z,16.70
2018-10-18T00:33:23.336Z,16.60
2018-10-18T00:34:26.740Z,16.60
2018-10-18T00:35:31.262Z,16.60
2018-10-18T00:36:35.301Z,16.60
2018-10-18T00:37:39.689Z,16.60
2018-10-18T00:38:43.124Z,16.50
2018-10-18T00:39:46.524Z,16.50
2018-10-18T00:40:51.001Z,16.50
2018-10-18T00:41:54.474Z,16.50
2018-10-18T00:42:57.868Z,16.40
2018-10-18T00:44:01.360Z,16.40
2018-10-18T00:45:06.728Z,16.40
2018-10-18T00:46:11.154Z,16.30
2018-10-18T00:47:14.611Z,16.30
2018-10-18T00:48:18.104Z,16.30
2018-10-18T00:49:21.456Z,16.30
2018-10-18T00:50:25.954Z,16.30
2018-10-18T00:51:30.445Z,16.30
2018-10-18T00:52:33.912Z,16.30
2018-10-18T00:53:37.336Z,16.30
2018-10-18T00:54:40.740Z,16.20
2018-10-18T00:55:45.075Z,16.20
2018-10-18T00:56:50.508Z,16.20
2018-10-18T00:57:53.960Z,16.20
2018-10-18T00:58:57.349Z,16.20
2018-10-18T01:00:01.023Z,16.20
2018-10-18T01:01:05.946Z,16.20
2018-10-18T01:02:10.556Z,16.20
2018-10-18T01:03:14.033Z,16.20
2018-10-18T01:04:17.445Z,16.20
2018-10-18T01:05:21.860Z,16.20
2018-10-18T01:06:26.273Z,16.20
2018-10-18T01:07:29.709Z,16.20
2018-10-18T01:08:33.147Z,16.10
2018-10-18T01:09:36.531Z,16.10
2018-10-18T01:10:41.057Z,16.10
2018-10-18T01:11:44.486Z,16.10
2018-10-18T01:12:47.932Z,16.10
2018-10-18T01:13:51.304Z,16.10
2018-10-18T01:14:54.706Z,16.10
2018-10-18T01:15:59.220Z,16.00
2018-10-18T01:17:03.829Z,16.10
2018-10-18T01:18:07.585Z,16.00
2018-10-18T01:19:11.985Z,16.00
2018-10-18T01:20:16.862Z,16.10
2018-10-18T01:21:22.448Z,16.10
2018-10-18T01:22:25.882Z,16.00
2018-10-18T01:23:29.277Z,16.00
2018-10-18T01:24:32.732Z,16.00
2018-10-18T01:25:37.108Z,16.00
2018-10-18T01:26:40.528Z,15.90
2018-10-18T01:27:43.983Z,15.90
2018-10-18T01:28:47.403Z,15.90
2018-10-18T01:29:50.897Z,15.90
2018-10-18T01:30:55.339Z,15.90
2018-10-18T01:31:59.366Z,15.90
2018-10-18T01:33:02.766Z,15.90
2018-10-18T01:34:06.188Z,15.90
2018-10-18T01:35:10.648Z,15.90
2018-10-18T01:36:15.686Z,15.90
2018-10-18T01:37:19.100Z,15.90
2018-10-18T01:38:22.556Z,15.90
2018-10-18T01:39:25.986Z,15.90
2018-10-18T01:40:30.223Z,15.90
2018-10-18T01:41:33.660Z,15.90
2018-10-18T01:42:37.089Z,15.90
2018-10-18T01:43:40.550Z,16.00
2018-10-18T01:44:43.964Z,15.90
2018-10-18T01:45:48.574Z,15.90
2018-10-18T01:46:52.431Z,15.90
2018-10-18T01:47:55.844Z,15.80
2018-10-18T01:48:59.232Z,15.80
2018-10-18T01:50:02.766Z,15.80
2018-10-18T01:51:07.718Z,15.80
2018-10-18T01:52:11.124Z,15.80
2018-10-18T01:53:14.541Z,15.80
2018-10-18T01:54:17.997Z,15.80
2018-10-18T01:55:22.366Z,15.80
2018-10-18T01:56:27.073Z,15.90
2018-10-18T01:57:30.513Z,15.90
2018-10-18T01:58:33.884Z,15.90
2018-10-18T01:59:37.305Z,15.90
2018-10-18T02:00:42.838Z,15.90
2018-10-18T02:01:46.292Z,15.90
2018-10-18T02:02:49.693Z,15.90
2018-10-18T02:03:53.107Z,15.90
2018-10-18T02:04:56.524Z,15.90
2018-10-18T02:06:01.182Z,15.90
2018-10-18T02:07:04.632Z,15.90
2018-10-18T02:08:08.079Z,15.90
2018-10-18T02:09:12.552Z,15.90
2018-10-18T02:10:16.907Z,15.90
2018-10-18T02:11:21.576Z,15.90
2018-10-18T02:12:25.032Z,15.90
2018-10-18T02:13:28.502Z,15.80
2018-10-18T02:14:31.868Z,15.80
2018-10-18T02:15:36.329Z,15.80
2018-10-18T02:16:39.769Z,15.70
2018-10-18T02:17:43.189Z,15.70
2018-10-18T02:18:46.599Z,15.70
2018-10-18T02:19:49.989Z,15.70
2018-10-18T02:20:54.342Z,15.70
2018-10-18T02:21:57.781Z,15.70
2018-10-18T02:23:01.211Z,15.70
2018-10-18T02:24:04.899Z,15.60
2018-10-18T02:25:09.366Z,15.60
2018-10-18T02:26:14.144Z,15.60
2018-10-18T02:27:17.580Z,15.60
2018-10-18T02:28:21.041Z,15.60
2018-10-18T02:29:24.456Z,15.70
2018-10-18T02:30:28.771Z,15.70
2018-10-18T02:31:32.191Z,15.70
2018-10-18T02:32:35.860Z,15.80
2018-10-18T02:33:39.275Z,15.80
2018-10-18T02:34:42.684Z,15.80
2018-10-18T02:35:47.333Z,15.80
2018-10-18T02:36:50.797Z,15.80
2018-10-18T02:37:54.197Z,15.80
2018-10-18T02:39:07.045Z,15.90
2018-10-18T02:40:11.472Z,15.80
2018-10-18T02:41:15.923Z,15.90
2018-10-18T02:42:19.403Z,15.90
2018-10-18T02:43:22.782Z,15.90
2018-10-18T02:44:26.304Z,16.00
2018-10-18T02:45:31.674Z,15.90
2018-10-18T02:46:35.189Z,16.00
2018-10-18T02:47:38.601Z,16.00
2018-10-18T02:48:41.993Z,16.00
2018-10-18T02:49:45.508Z,16.00
2018-10-18T02:50:49.987Z,16.00
2018-10-18T02:51:53.436Z,16.00
2018-10-18T02:52:56.840Z,16.00
2018-10-18T02:54:00.252Z,16.00
2018-10-18T02:55:04.538Z,16.10
2018-10-18T02:56:09.243Z,16.10
2018-10-18T02:57:12.695Z,16.10
2018-10-18T02:58:16.136Z,16.10
2018-10-18T02:59:19.555Z,16.10
2018-10-18T03:00:24.139Z,16.20
2018-10-18T03:01:28.564Z,16.10
2018-10-18T03:02:32.371Z,16.20
2018-10-18T03:03:35.829Z,16.20
2018-10-18T03:04:39.336Z,16.20
2018-10-18T03:05:43.821Z,16.20
2018-10-18T03:06:47.246Z,16.20
2018-10-18T03:07:50.637Z,16.20
2018-10-18T03:08:54.300Z,16.20
2018-10-18T03:09:58.341Z,16.20
2018-10-18T03:11:02.714Z,16.20
2018-10-18T03:12:06.632Z,16.30
2018-10-18T03:13:09.962Z,16.20
2018-10-18T03:14:13.368Z,16.30
2018-10-18T03:15:17.868Z,16.30
2018-10-18T03:16:22.238Z,16.30
2018-10-18T03:17:25.679Z,16.30
2018-10-18T03:18:29.080Z,16.30
2018-10-18T03:19:32.462Z,16.30
2018-10-18T03:20:36.991Z,16.30
2018-10-18T03:21:40.450Z,16.30
2018-10-18T03:22:43.888Z,16.30
2018-10-18T03:23:47.270Z,16.30
2018-10-18T03:24:50.649Z,16.30
2018-10-18T03:25:55.559Z,16.30
2018-10-18T03:26:58.988Z,16.40
2018-10-18T03:28:02.515Z,16.40
2018-10-18T03:29:05.911Z,16.40
2018-10-18T03:30:10.571Z,16.40
2018-10-18T03:31:15.304Z,16.40
2018-10-18T03:32:18.845Z,16.40
2018-10-18T03:33:22.232Z,16.40
2018-10-18T03:34:25.665Z,16.40
2018-10-18T03:35:30.666Z,16.40
2018-10-18T03:36:34.139Z,16.40
2018-10-18T03:37:37.724Z,16.30
2018-10-18T03:38:41.123Z,16.30
2018-10-18T03:39:44.526Z,16.30
2018-10-18T03:40:49.106Z,16.30
2018-10-18T03:41:52.546Z,16.30
2018-10-18T03:42:55.969Z,16.30
2018-10-18T03:43:59.369Z,16.30
2018-10-18T03:45:02.909Z,16.30
2018-10-18T03:46:07.402Z,16.20
2018-10-18T03:47:10.838Z,16.10
2018-10-18T03:48:14.334Z,16.10
2018-10-18T03:49:17.712Z,16.20
2018-10-18T03:50:22.501Z,16.10
2018-10-18T03:51:27.891Z,16.10
2018-10-18T03:52:31.332Z,16.10
2018-10-18T03:53:34.742Z,16.10
2018-10-18T03:54:38.155Z,16.10
2018-10-18T03:55:42.646Z,16.10
2018-10-18T03:56:46.219Z,16.10
2018-10-18T03:57:49.621Z,16.00
2018-10-18T03:58:53.025Z,16.00
2018-10-18T03:59:56.504Z,16.10
2018-10-18T04:01:00.925Z,16.00
2018-10-18T04:02:04.456Z,16.00
2018-10-18T04:03:07.839Z,16.00
2018-10-18T04:04:11.286Z,16.00
2018-10-18T04:05:16.625Z,16.00
2018-10-18T04:06:21.184Z,16.00
2018-10-18T04:07:24.514Z,16.00
2018-10-18T04:08:27.950Z,16.00
2018-10-18T04:09:31.343Z,16.00
2018-10-18T04:10:35.900Z,15.90
2018-10-18T04:11:40.385Z,16.00
2018-10-18T04:12:43.777Z,15.90
2018-10-18T04:13:47.189Z,15.90
2018-10-18T04:14:50.633Z,16.00
2018-10-18T04:15:55.060Z,15.90
2018-10-18T04:16:58.509Z,15.90
2018-10-18T04:18:02.007Z,15.90
2018-10-18T04:19:05.839Z,15.80
2018-10-18T04:20:10.226Z,15.80
2018-10-18T04:21:15.434Z,15.80
2018-10-18T04:22:18.887Z,15.80
2018-10-18T04:23:36.881Z,15.80
2018-10-18T04:24:40.261Z,15.80
2018-10-18T04:25:45.646Z,15.80
2018-10-18T04:26:49.071Z,15.90
2018-10-18T04:27:52.478Z,15.80
2018-10-18T04:28:55.896Z,15.90
2018-10-18T04:29:59.332Z,15.80
2018-10-18T04:31:04.408Z,15.80
2018-10-18T04:32:08.399Z,15.70
2018-10-18T04:33:11.856Z,15.70
2018-10-18T04:34:15.299Z,15.70
2018-10-18T04:35:19.784Z,15.70
2018-10-18T04:36:24.145Z,15.70
2018-10-18T04:37:27.597Z,15.70
2018-10-18T04:38:30.987Z,15.70
2018-10-18T04:39:34.371Z,15.70
2018-10-18T04:40:38.968Z,15.70
2018-10-18T04:41:42.652Z,15.60
2018-10-18T04:42:46.061Z,15.60
2018-10-18T04:43:49.472Z,15.60
2018-10-18T04:44:52.919Z,15.60
2018-10-18T04:45:57.273Z,15.60
2018-10-18T04:47:00.776Z,15.60
2018-10-18T04:48:04.360Z,15.60
2018-10-18T04:49:07.691Z,15.60
2018-10-18T04:50:12.193Z,15.60
2018-10-18T04:51:16.631Z,15.50
2018-10-18T04:52:20.049Z,15.50
2018-10-18T04:53:23.429Z,15.50
2018-10-18T04:54:26.832Z,15.50
2018-10-18T04:55:31.232Z,15.50
2018-10-18T04:56:34.723Z,15.50
2018-10-18T04:57:38.149Z,15.50
2018-10-18T04:58:41.552Z,15.50
2018-10-18T04:59:44.943Z,15.50
2018-10-18T05:00:50.025Z,15.50
2018-10-18T05:01:53.508Z,15.50
2018-10-18T05:02:56.992Z,15.50
2018-10-18T05:04:00.440Z,15.60
2018-10-18T05:05:15.726Z,15.50
2018-10-18T05:06:20.506Z,15.50
2018-10-18T05:07:23.969Z,15.50
2018-10-18T05:08:27.982Z,15.60
2018-10-18T05:09:31.416Z,15.60
2018-10-18T05:10:35.849Z,15.60
2018-10-18T05:11:39.289Z,15.60
2018-10-18T05:12:42.680Z,15.60
2018-10-18T05:13:46.146Z,15.60
2018-10-18T05:14:49.585Z,15.60
2018-10-18T05:15:53.936Z,15.60
2018-10-18T05:16:57.373Z,15.60
2018-10-18T05:18:00.747Z,15.60
2018-10-18T05:19:04.242Z,15.70
2018-10-18T05:20:08.876Z,15.70
2018-10-18T05:21:14.137Z,15.70
2018-10-18T05:22:17.557Z,15.70
2018-10-18T05:23:20.921Z,15.60
2018-10-18T05:24:24.342Z,15.60
2018-10-18T05:25:28.810Z,15.60
2018-10-18T05:26:32.240Z,15.60
2018-10-18T05:27:35.666Z,15.60
2018-10-18T05:28:39.129Z,15.60
2018-10-18T05:29:42.564Z,15.60
2018-10-18T05:30:47.738Z,15.60
2018-10-18T05:31:51.232Z,15.60
2018-10-18T05:32:54.567Z,15.60
2018-10-18T05:33:57.951Z,15.60
2018-10-18T05:35:01.371Z,15.60
2018-10-18T05:36:05.867Z,15.60
2018-10-18T05:37:09.312Z,15.60
2018-10-18T05:38:12.649Z,15.60
2018-10-18T05:39:16.099Z,15.50
2018-10-18T05:40:21.615Z,15.50
2018-10-18T05:41:25.965Z,15.50
2018-10-18T05:42:29.429Z,15.50
2018-10-18T05:43:32.825Z,15.50
2018-10-18T05:44:36.264Z,15.40
2018-10-18T05:45:40.646Z,15.50
2018-10-18T05:46:44.142Z,15.40
2018-10-18T05:47:47.496Z,15.40
2018-10-18T05:48:50.888Z,15.40
2018-10-18T05:49:54.324Z,15.40
2018-10-18T05:50:58.806Z,15.40
2018-10-18T05:52:02.236Z,15.40
2018-10-18T05:53:05.947Z,15.50
2018-10-18T05:54:09.284Z,15.50
2018-10-18T05:55:13.912Z,15.50
2018-10-18T05:56:18.381Z,15.50
2018-10-18T05:57:21.929Z,15.50
2018-10-18T05:58:25.377Z,15.50
2018-10-18T05:59:29.348Z,15.50
2018-10-18T06:00:33.922Z,15.50
2018-10-18T06:01:37.347Z,15.50
2018-10-18T06:02:41.044Z,15.50
2018-10-18T06:03:44.447Z,15.60
2018-10-18T06:04:47.980Z,15.60
2018-10-18T06:05:52.381Z,15.60
2018-10-18T06:06:55.870Z,15.60
2018-10-18T06:07:59.346Z,15.60
2018-10-18T06:09:02.842Z,15.50
2018-10-18T06:10:17.120Z,15.50
2018-10-18T06:11:27.571Z,15.50
2018-10-18T06:12:31.013Z,15.50
2018-10-18T06:13:34.441Z,15.50
2018-10-18T06:14:37.852Z,15.60
2018-10-18T06:15:42.404Z,15.60
2018-10-18T06:16:45.888Z,15.60
2018-10-18T06:17:49.279Z,15.60
2018-10-18T06:18:52.842Z,15.60
2018-10-18T06:19:56.656Z,15.70
2018-10-18T06:21:01.422Z,15.70
2018-10-18T06:22:05.302Z,15.70
2018-10-18T06:23:08.781Z,15.70
2018-10-18T06:24:12.232Z,15.70
2018-10-18T06:25:16.732Z,15.70
2018-10-18T06:26:22.571Z,15.80
2018-10-18T06:27:26.277Z,15.70
2018-10-18T06:28:29.999Z,15.80
2018-10-18T06:29:33.424Z,15.70
2018-10-18T06:30:37.947Z,15.70
2018-10-18T06:31:41.592Z,15.80
2018-10-18T06:32:44.980Z,15.80
2018-10-18T06:33:48.929Z,15.80
2018-10-18T06:34:52.378Z,15.80
2018-10-18T06:35:56.975Z,15.80
2018-10-18T06:37:00.466Z,15.80
2018-10-18T06:38:03.824Z,15.80
2018-10-18T06:39:08.863Z,15.90
2018-10-18T06:40:14.614Z,15.90
2018-10-18T06:41:19.190Z,15.90
2018-10-18T06:42:22.585Z,16.00
2018-10-18T06:43:26.003Z,15.90
2018-10-18T06:44:29.449Z,16.00
2018-10-18T06:45:33.951Z,16.00
2018-10-18T06:46:37.437Z,16.00
2018-10-18T06:47:41.584Z,16.00
2018-10-18T06:48:44.846Z,16.00
2018-10-18T06:49:48.268Z,16.00
2018-10-18T06:50:53.545Z,16.00
2018-10-18T06:51:57.019Z,16.00
2018-10-18T06:53:00.399Z,16.00
2018-10-18T06:54:03.831Z,16.00
2018-10-18T06:55:08.447Z,16.00
2018-10-18T06:56:13.457Z,16.00
2018-10-18T06:57:16.942Z,16.00
2018-10-18T06:58:20.369Z,16.00
2018-10-18T06:59:23.810Z,16.00
2018-10-18T07:00:28.247Z,16.00
2018-10-18T07:01:32.349Z,16.00
2018-10-18T07:02:35.764Z,16.00
2018-10-18T07:03:39.268Z,16.00
2018-10-18T07:04:42.679Z,16.00
2018-10-18T07:05:49.591Z,16.00
2018-10-18T07:06:53.044Z,16.00
2018-10-18T07:07:56.465Z,16.00
2018-10-18T07:08:59.991Z,16.00
2018-10-18T07:10:03.859Z,16.00
2018-10-18T07:11:08.533Z,16.00
2018-10-18T07:12:11.930Z,16.10
2018-10-18T07:13:15.327Z,16.10
2018-10-18T07:14:18.745Z,16.10
2018-10-18T07:15:23.110Z,16.10
2018-10-18T07:16:27.462Z,16.20
2018-10-18T07:17:30.956Z,16.20
2018-10-18T07:18:34.368Z,16.20
2018-10-18T07:19:37.805Z,16.30
2018-10-18T07:20:42.394Z,16.30
2018-10-18T07:21:45.878Z,16.30
2018-10-18T07:22:49.281Z,16.30
2018-10-18T07:23:52.715Z,16.30
2018-10-18T07:24:56.136Z,16.40
2018-10-18T07:26:00.679Z,16.40
2018-10-18T07:27:04.168Z,16.40
2018-10-18T07:28:07.576Z,16.40
2018-10-18T07:29:10.993Z,16.40
2018-10-18T07:30:15.894Z,16.40
2018-10-18T07:31:20.322Z,16.40
2018-10-18T07:32:24.021Z,16.40
2018-10-18T07:33:27.453Z,16.50
2018-10-18T07:34:30.912Z,16.50
2018-10-18T07:35:35.549Z,16.50
2018-10-18T07:36:38.964Z,16.50
2018-10-18T07:37:42.361Z,16.50
2018-10-18T07:38:45.769Z,16.50
2018-10-18T07:39:49.237Z,16.60
2018-10-18T07:40:53.576Z,16.60
2018-10-18T07:41:57.089Z,16.60
2018-10-18T07:43:00.497Z,16.60
2018-10-18T07:44:03.949Z,16.60
2018-10-18T07:45:09.869Z,16.60
2018-10-18T07:46:14.479Z,16.60
2018-10-18T07:47:17.949Z,16.60
2018-10-18T07:48:21.338Z,16.60
2018-10-18T07:49:24.820Z,16.60
2018-10-18T07:50:29.329Z,16.60
2018-10-18T07:51:32.794Z,16.60
2018-10-18T07:52:36.519Z,16.60
2018-10-18T07:53:40.091Z,16.70
2018-10-18T07:54:43.458Z,16.70
2018-10-18T07:55:47.944Z,16.70
2018-10-18T07:56:51.476Z,16.80
2018-10-18T07:57:54.884Z,16.80
2018-10-18T07:58:58.301Z,16.80
2018-10-18T08:00:01.990Z,16.80
2018-10-18T08:01:06.231Z,16.80
2018-10-18T08:02:09.691Z,16.90
2018-10-18T08:03:13.109Z,16.90
2018-10-18T08:04:16.538Z,16.90
2018-10-18T08:05:21.273Z,17.00
2018-10-18T08:06:25.753Z,17.00
2018-10-18T08:07:29.206Z,17.00
2018-10-18T08:08:32.623Z,17.00
2018-10-18T08:09:36.084Z,17.00
2018-10-18T08:10:40.455Z,17.00
2018-10-18T08:11:44.008Z,17.00
2018-10-18T08:12:47.452Z,17.00
2018-10-18T08:13:50.877Z,17.10
2018-10-18T08:14:54.352Z,17.10
2018-10-18T08:15:58.728Z,17.10
2018-10-18T08:17:02.226Z,17.10
2018-10-18T08:18:05.903Z,17.10
2018-10-18T08:19:09.473Z,17.10
2018-10-18T08:20:14.629Z,17.10
2018-10-18T08:21:19.231Z,17.10
2018-10-18T08:22:22.728Z,17.10
2018-10-18T08:23:26.166Z,17.10
2018-10-18T08:24:29.594Z,17.10
2018-10-18T08:25:33.923Z,17.10
2018-10-18T08:26:37.452Z,17.10
2018-10-18T08:27:40.916Z,17.10
2018-10-18T08:28:44.404Z,17.10
2018-10-18T08:29:47.816Z,17.20
2018-10-18T08:30:54.607Z,17.20
2018-10-18T08:31:58.075Z,17.20
2018-10-18T08:33:01.536Z,17.20
2018-10-18T08:34:05.121Z,17.20
2018-10-18T08:35:10.411Z,17.30
2018-10-18T08:36:14.936Z,17.20
2018-10-18T08:37:18.371Z,17.20
2018-10-18T08:38:22.713Z,17.20
2018-10-18T08:39:26.136Z,17.20
2018-10-18T08:40:30.752Z,17.20
2018-10-18T08:41:34.208Z,17.20
2018-10-18T08:42:37.620Z,17.20
2018-10-18T08:43:41.040Z,17.30
2018-10-18T08:44:44.510Z,17.30
2018-10-18T08:45:49.084Z,17.30
2018-10-18T08:46:52.525Z,17.40
2018-10-18T08:47:55.928Z,17.40
2018-10-18T08:48:59.356Z,17.40
2018-10-18T08:50:02.903Z,17.40
2018-10-18T08:51:07.258Z,17.40
2018-10-18T08:52:10.698Z,17.50
2018-10-18T08:53:14.133Z,17.50
2018-10-18T08:54:17.541Z,17.50
2018-10-18T08:55:22.093Z,17.50
2018-10-18T08:56:26.980Z,17.50
2018-10-18T08:57:30.502Z,17.60
2018-10-18T08:58:33.925Z,17.60
2018-10-18T08:59:37.373Z,17.60
2018-10-18T09:00:42.362Z,17.60
2018-10-18T09:01:45.800Z,17.60
2018-10-18T09:02:49.212Z,17.60
2018-10-18T09:03:52.626Z,17.60
2018-10-18T09:04:56.032Z,17.60
2018-10-18T09:06:00.372Z,17.60
2018-10-18T09:07:03.878Z,17.60
2018-10-18T09:08:07.248Z,17.60
2018-10-18T09:09:10.815Z,17.60
2018-10-18T09:10:15.194Z,17.60
2018-10-18T09:11:19.632Z,17.60
2018-10-18T09:12:23.065Z,17.60
2018-10-18T09:13:26.500Z,17.60
2018-10-18T09:14:29.916Z,17.60
2018-10-18T09:15:34.237Z,17.50
2018-10-18T09:16:37.704Z,17.50
2018-10-18T09:17:41.233Z,17.50
2018-10-18T09:18:44.696Z,17.50
2018-10-18T09:19:48.110Z,17.40
2018-10-18T09:20:53.608Z,17.40
2018-10-18T09:21:57.669Z,17.40
2018-10-18T09:23:01.737Z,17.40
2018-10-18T09:24:05.508Z,17.40
2018-10-18T09:25:10.986Z,17.40
2018-10-18T09:26:15.562Z,17.40
2018-10-18T09:27:18.981Z,17.40
2018-10-18T09:28:22.455Z,17.40
2018-10-18T09:29:25.906Z,17.40
2018-10-18T09:30:30.906Z,17.40
2018-10-18T09:31:34.169Z,17.40
2018-10-18T09:32:37.580Z,17.50
2018-10-18T09:33:41.021Z,17.40
2018-10-18T09:34:44.471Z,17.40
2018-10-18T09:35:49.051Z,17.40
2018-10-18T09:36:52.503Z,17.40
2018-10-18T09:37:55.967Z,17.40
2018-10-18T09:38:59.459Z,17.40
2018-10-18T09:40:02.999Z,17.40
2018-10-18T09:41:08.398Z,17.40
2018-10-18T09:42:11.875Z,17.40
2018-10-18T09:43:15.448Z,17.40
2018-10-18T09:44:18.992Z,17.40
2018-10-18T09:45:23.412Z,17.40
2018-10-18T09:46:27.895Z,17.40
2018-10-18T09:47:31.420Z,17.40
2018-10-18T09:48:35.048Z,17.30
2018-10-18T09:49:39.401Z,17.30
2018-10-18T09:50:44.546Z,17.40
2018-10-18T09:51:48.017Z,17.30
2018-10-18T09:52:51.498Z,17.40
2018-10-18T09:53:54.847Z,17.40
2018-10-18T09:54:59.126Z,17.40
2018-10-18T09:56:03.563Z,17.40
2018-10-18T09:57:06.945Z,17.40
2018-10-18T09:58:10.560Z,17.40
2018-10-18T09:59:14.104Z,17.40
2018-10-18T10:00:23.691Z,17.40
2018-10-18T10:01:33.187Z,17.40
2018-10-18T10:02:41.336Z,17.50
2018-10-18T10:03:44.825Z,17.50
2018-10-18T10:04:48.313Z,17.50
2018-10-18T10:05:52.666Z,17.60
2018-10-18T10:06:56.141Z,17.60
2018-10-18T10:07:59.500Z,17.60
2018-10-18T10:09:03.433Z,17.60
2018-10-18T10:10:08.376Z,17.70
2018-10-18T10:11:12.881Z,17.70
2018-10-18T10:12:16.337Z,17.70
2018-10-18T10:13:19.870Z,17.80
2018-10-18T10:14:23.220Z,17.80
2018-10-18T10:15:27.752Z,17.90
2018-10-18T10:16:31.297Z,17.90
2018-10-18T10:17:34.752Z,17.90
2018-10-18T10:18:38.226Z,17.90
2018-10-18T10:19:41.678Z,18.00
2018-10-18T10:20:46.281Z,18.00
2018-10-18T10:21:49.760Z,18.00
2018-10-18T10:22:53.166Z,18.00
2018-10-18T10:23:56.584Z,18.00
2018-10-18T10:25:00.071Z,18.00
2018-10-18T10:26:05.094Z,18.00
2018-10-18T10:27:08.667Z,18.00
2018-10-18T10:28:12.104Z,18.00
2018-10-18T10:29:15.535Z,18.00
2018-10-18T10:30:20.780Z,18.10
2018-10-18T10:31:25.408Z,18.10
2018-10-18T10:32:28.869Z,18.10
2018-10-18T10:33:32.408Z,18.10
2018-10-18T10:34:35.797Z,18.10
2018-10-18T10:35:40.618Z,18.10
2018-10-18T10:36:44.104Z,18.10
2018-10-18T10:37:47.510Z,18.20
2018-10-18T10:38:51.263Z,18.20
2018-10-18T10:39:54.724Z,18.20
2018-10-18T10:40:59.183Z,18.20
2018-10-18T10:42:02.659Z,18.20
2018-10-18T10:43:06.241Z,18.20
2018-10-18T10:44:10.368Z,18.20
2018-10-18T10:45:14.864Z,18.20
2018-10-18T10:46:19.572Z,18.20
2018-10-18T10:47:23.046Z,18.20
2018-10-18T10:48:26.484Z,18.20
2018-10-18T10:49:30.023Z,18.20
2018-10-18T10:50:34.860Z,18.20
2018-10-18T10:51:38.537Z,18.10
2018-10-18T10:52:41.980Z,18.10
2018-10-18T10:53:45.404Z,18.10
2018-10-18T10:54:48.936Z,18.00
2018-10-18T10:55:53.534Z,18.00
2018-10-18T10:56:57.239Z,18.00
2018-10-18T10:58:00.711Z,17.90
2018-10-18T10:59:12.542Z,17.90
2018-10-18T11:00:26.480Z,17.90
2018-10-18T11:01:30.279Z,17.90
2018-10-18T11:02:33.683Z,17.90
2018-10-18T11:03:37.813Z,17.90
2018-10-18T11:04:41.254Z,17.90
2018-10-18T11:05:45.720Z,17.90
2018-10-18T11:06:49.197Z,17.90
2018-10-18T11:07:52.695Z,17.90
2018-10-18T11:08:56.158Z,17.90
2018-10-18T11:09:59.591Z,17.90
2018-10-18T11:11:04.085Z,17.90
2018-10-18T11:12:07.627Z,17.90
2018-10-18T11:13:10.996Z,17.90
2018-10-18T11:14:14.469Z,17.90
2018-10-18T11:15:19.069Z,17.90
2018-10-18T11:16:24.296Z,17.90
2018-10-18T11:17:27.712Z,17.90
2018-10-18T11:18:32.213Z,17.90
2018-10-18T11:19:35.704Z,17.90
2018-10-18T11:20:40.367Z,18.00
2018-10-18T11:21:43.929Z,18.00
2018-10-18T11:22:47.285Z,18.00
2018-10-18T11:23:50.683Z,18.10
2018-10-18T11:24:54.148Z,18.10
2018-10-18T11:25:59.073Z,18.10
2018-10-18T11:27:02.596Z,18.10
2018-10-18T11:28:06.228Z,18.10
2018-10-18T11:29:09.658Z,18.10
2018-10-18T11:30:14.306Z,18.10
2018-10-18T11:31:19.332Z,18.20
2018-10-18T11:32:22.757Z,18.20
2018-10-18T11:33:26.135Z,18.20
2018-10-18T11:34:29.690Z,18.20
2018-10-18T11:35:35.904Z,18.20
2018-10-18T11:36:39.313Z,18.30
2018-10-18T11:37:42.704Z,18.30
2018-10-18T11:38:46.117Z,18.30
2018-10-18T11:39:49.579Z,18.30
2018-10-18T11:40:54.103Z,18.30
2018-10-18T11:41:57.648Z,18.30
2018-10-18T11:43:01.161Z,18.30
2018-10-18T11:44:04.761Z,18.30
2018-10-18T11:45:09.250Z,18.40
2018-10-18T11:46:13.820Z,18.40
2018-10-18T11:47:17.307Z,18.30
2018-10-18T11:48:20.748Z,18.30
2018-10-18T11:49:24.163Z,18.30
2018-10-18T11:50:28.960Z,18.40
2018-10-18T11:51:32.454Z,18.30
2018-10-18T11:52:35.836Z,18.40
2018-10-18T11:53:39.283Z,18.40
2018-10-18T11:54:42.712Z,18.40
2018-10-18T11:55:47.360Z,18.50
2018-10-18T11:56:50.808Z,18.50
2018-10-18T11:57:54.240Z,18.50
2018-10-18T11:58:57.729Z,18.50
2018-10-18T12:00:01.176Z,18.50
2018-10-18T12:01:05.865Z,18.50
2018-10-18T12:02:09.395Z,18.50
2018-10-18T12:03:12.751Z,18.50
2018-10-18T12:04:16.154Z,18.50
2018-10-18T12:05:20.639Z,18.60
2018-10-18T12:06:26.082Z,18.60
2018-10-18T12:07:29.487Z,18.60
2018-10-18T12:08:32.873Z,18.60
2018-10-18T12:09:36.345Z,18.70
2018-10-18T12:10:40.882Z,18.80
2018-10-18T12:11:44.333Z,18.80
2018-10-18T12:12:47.766Z,18.90
2018-10-18T12:13:51.176Z,18.90
2018-10-18T12:14:54.694Z,18.90
2018-10-18T12:15:59.595Z,18.90
2018-10-18T12:17:03.200Z,18.90
2018-10-18T12:18:06.556Z,18.90
2018-10-18T12:19:10.070Z,18.90
2018-10-18T12:20:16.002Z,18.90
2018-10-18T12:21:21.093Z,18.90
2018-10-18T12:22:24.525Z,18.90
2018-10-18T12:23:27.989Z,18.90
2018-10-18T12:24:31.424Z,18.90
2018-10-18T12:25:35.824Z,18.90
2018-10-18T12:26:39.257Z,18.90
2018-10-18T12:27:43.157Z,18.90
2018-10-18T12:28:46.623Z,18.80
2018-10-18T12:29:50.044Z,18.80
2018-10-18T12:30:54.237Z,18.90
2018-10-18T12:31:57.672Z,18.80
2018-10-18T12:33:01.071Z,18.80
2018-10-18T12:34:04.665Z,18.80
2018-10-18T12:35:09.022Z,18.80
2018-10-18T12:36:13.627Z,18.80
2018-10-18T12:37:17.133Z,18.80
2018-10-18T12:38:20.559Z,18.80
2018-10-18T12:39:24.016Z,18.80
2018-10-18T12:40:28.574Z,18.80
2018-10-18T12:41:32.170Z,18.80
2018-10-18T12:42:36.336Z,18.80
2018-10-18T12:43:39.782Z,18.70
2018-10-18T12:44:43.228Z,18.70
2018-10-18T12:45:47.640Z,18.70
2018-10-18T12:46:51.062Z,18.70
2018-10-18T12:47:54.573Z,18.60
2018-10-18T12:48:57.923Z,18.60
2018-10-18T12:50:01.399Z,18.60
2018-10-18T12:51:05.747Z,18.60
2018-10-18T12:52:11.097Z,18.60
2018-10-18T12:53:14.549Z,18.60
2018-10-18T12:54:18.012Z,18.50
2018-10-18T12:55:23.001Z,18.50
2018-10-18T12:56:27.442Z,18.50
2018-10-18T12:57:30.887Z,18.50
2018-10-18T12:58:34.367Z,18.60
2018-10-18T12:59:37.824Z,18.60
2018-10-18T13:00:42.669Z,18.50
2018-10-18T13:01:46.134Z,18.60
2018-10-18T13:02:49.555Z,18.50
2018-10-18T13:03:52.977Z,18.60
2018-10-18T13:04:56.441Z,18.60
2018-10-18T13:06:01.305Z,18.60
2018-10-18T13:07:05.085Z,18.60
2018-10-18T13:08:08.515Z,18.60
2018-10-18T13:09:11.904Z,18.70
2018-10-18T13:10:17.474Z,18.70
2018-10-18T13:11:22.598Z,18.70
2018-10-18T13:12:26.133Z,18.70
2018-10-18T13:13:29.424Z,18.70
2018-10-18T13:14:32.822Z,18.80
2018-10-18T13:15:37.192Z,18.80
2018-10-18T13:16:40.692Z,18.80
2018-10-18T13:17:44.147Z,18.80
2018-10-18T13:18:47.622Z,18.80
2018-10-18T13:19:51.020Z,18.80
2018-10-18T13:20:55.306Z,18.80
2018-10-18T13:21:58.759Z,18.80
2018-10-18T13:23:02.159Z,18.80
2018-10-18T13:24:05.905Z,18.80
2018-10-18T13:25:11.536Z,18.80
2018-10-18T13:26:15.978Z,18.90
2018-10-18T13:27:19.444Z,18.90
2018-10-18T13:28:22.840Z,18.90
2018-10-18T13:29:26.269Z,18.90
2018-10-18T13:30:30.929Z,18.90
2018-10-18T13:31:34.401Z,18.90
2018-10-18T13:32:37.838Z,18.90
2018-10-18T13:33:41.240Z,18.90
2018-10-18T13:34:44.697Z,18.80
2018-10-18T13:35:49.148Z,18.90
2018-10-18T13:36:52.596Z,18.90
2018-10-18T13:37:56.023Z,18.90
2018-10-18T13:38:59.507Z,18.90
2018-10-18T13:40:03.829Z,18.90
2018-10-18T13:41:08.338Z,18.90
2018-10-18T13:42:11.804Z,18.90
2018-10-18T13:43:15.208Z,18.90